Time;durP1;ratioP1;P1;durP2;ratioP2;P2;SDS_P1;SDS_P2;PMS_P1;PMS_P2;Temp;Humidity;BMP_temperature;BMP_pressure;BME280_temperature;BME280_humidity;BME280_pressure;Samples;Min_cycle;Max_cycle;Signal;HPM_P1;HPM_P2
2022/01/14 00:01:35;;;;;;;11.00;10.70;;;-1.00;99.90;;;;;;5157380;27;20273;-82
2022/01/14 00:04:04;;;;;;;10.40;10.10;;;-1.00;99.90;;;;;;5147737;27;20235;-81
2022/01/14 00:06:37;;;;;;;10.60;10.30;;;-1.10;99.90;;;;;;5146924;27;20231;-81
2022/01/14 00:09:06;;;;;;;10.50;10.20;;;-1.00;99.90;;;;;;5148555;27;20219;-81
2022/01/14 00:11:35;;;;;;;10.60;10.30;;;-1.10;99.90;;;;;;5148779;27;20254;-81
2022/01/14 00:14:22;;;;;;;10.40;10.10;;;-1.00;99.90;;;;;;5146985;27;20230;-81
2022/01/14 00:16:51;;;;;;;10.50;10.20;;;-1.00;99.90;;;;;;5145765;27;20238;-81
2022/01/14 00:19:20;;;;;;;10.53;10.23;;;-1.10;99.90;;;;;;5145696;27;20425;-82
2022/01/14 00:21:49;;;;;;;10.60;10.30;;;-1.10;99.90;;;;;;5125074;28;20221;-82
2022/01/14 00:24:32;;;;;;;10.60;10.30;;;-1.10;99.90;;;;;;5124701;28;20235;-82
2022/01/14 00:32:43;;;;;;;10.60;10.30;;;-1.20;99.90;;;;;;5120761;28;20208;-81
2022/01/14 00:35:11;;;;;;;10.50;10.20;;;-1.30;99.90;;;;;;5120768;28;20237;-81
2022/01/14 00:37:39;;;;;;;10.80;10.50;;;-1.30;99.90;;;;;;5130901;28;20235;-81
2022/01/14 00:40:09;;;;;;;10.53;10.23;;;-1.30;99.90;;;;;;5125361;28;20221;-82
2022/01/14 00:42:38;;;;;;;10.60;10.30;;;-1.30;99.90;;;;;;5122332;28;20248;-82
2022/01/14 00:45:10;;;;;;;10.50;10.20;;;-1.30;99.90;;;;;;5126094;27;20258;-81
2022/01/14 00:47:39;;;;;;;10.67;10.37;;;-1.30;99.90;;;;;;5141478;27;20270;-82
2022/01/14 00:50:09;;;;;;;10.43;10.13;;;-1.30;99.90;;;;;;5140080;27;20318;-82
2022/01/14 00:52:37;;;;;;;10.40;10.10;;;-1.30;99.90;;;;;;5139367;27;20228;-82
2022/01/14 00:55:07;;;;;;;10.50;10.20;;;-1.30;99.90;;;;;;5139131;27;20235;-82
2022/01/14 01:00:10;;;;;;;10.53;10.23;;;-1.40;99.90;;;;;;5207029;22;20231;-82
2022/01/14 01:02:42;;;;;;;10.80;10.50;;;-1.40;99.90;;;;;;5166803;27;20222;-81
2022/01/14 01:05:14;;;;;;;10.53;10.23;;;-1.40;99.90;;;;;;5160546;27;20353;-81
2022/01/14 01:07:43;;;;;;;10.50;10.20;;;-1.40;99.90;;;;;;5166118;27;20260;-81
2022/01/14 01:10:12;;;;;;;10.43;10.13;;;-1.40;99.90;;;;;;5144389;27;20261;-81
2022/01/14 01:12:49;;;;;;;10.50;10.20;;;-1.40;99.90;;;;;;5144257;27;20286;-81
2022/01/14 01:18:05;;;;;;;10.37;10.07;;;-1.50;99.90;;;;;;5143143;27;20230;-81
2022/01/14 01:20:35;;;;;;;10.23;9.93;;;-1.50;99.90;;;;;;5149848;27;20216;-81
2022/01/14 01:23:04;;;;;;;10.07;9.77;;;-1.50;99.90;;;;;;5144737;27;20217;-81
2022/01/14 01:25:39;;;;;;;10.20;9.90;;;-1.60;99.90;;;;;;5143268;27;20250;-81
2022/01/14 01:28:16;;;;;;;10.13;9.83;;;-1.60;99.90;;;;;;5143450;27;20262;-81
2022/01/14 01:31:04;;;;;;;10.33;10.03;;;-1.60;99.90;;;;;;5143270;27;20236;-81
2022/01/14 01:33:33;;;;;;;10.03;9.73;;;-1.70;99.90;;;;;;5143648;27;20218;-81
2022/01/14 01:36:01;;;;;;;10.33;10.03;;;-1.70;99.90;;;;;;5143132;27;20684;-81
2022/01/14 01:38:30;;;;;;;10.20;9.90;;;-1.70;99.90;;;;;;5141024;27;20234;-81
2022/01/14 01:40:59;;;;;;;10.30;10.00;;;-1.70;99.90;;;;;;5128358;27;20220;-81
2022/01/14 01:43:28;;;;;;;10.27;9.97;;;-1.70;99.90;;;;;;5147240;27;20629;-81
2022/01/14 01:48:44;;;;;;;10.27;9.97;;;-1.70;99.90;;;;;;5148268;27;20255;-82
2022/01/14 01:51:14;;;;;;;10.60;10.30;;;-1.70;99.90;;;;;;5164180;27;20241;-81
2022/01/14 01:53:43;;;;;;;10.43;10.13;;;-1.70;99.90;;;;;;5153964;27;20223;-82
2022/01/14 01:56:13;;;;;;;10.03;9.73;;;-1.70;99.90;;;;;;5150498;27;20229;-81
2022/01/14 01:58:42;;;;;;;10.50;10.20;;;-1.70;99.90;;;;;;5147739;27;20235;-81
2022/01/14 02:01:21;;;;;;;10.20;9.90;;;-1.70;99.90;;;;;;5147807;27;20225;-82
2022/01/14 02:03:50;;;;;;;10.30;10.00;;;-1.70;99.90;;;;;;5147818;27;20281;-81
2022/01/14 02:06:20;;;;;;;10.40;10.10;;;-1.70;99.90;;;;;;5147923;27;20235;-81
2022/01/14 02:08:49;;;;;;;10.40;10.10;;;-1.70;99.90;;;;;;5147258;27;20240;-81
2022/01/14 02:11:22;;;;;;;10.33;10.03;;;-1.70;99.90;;;;;;5147361;27;20251;-81
2022/01/14 02:13:50;;;;;;;10.50;10.20;;;-1.80;99.90;;;;;;5146504;27;20233;-81
2022/01/14 02:16:32;;;;;;;10.30;10.00;;;-1.70;99.90;;;;;;5146683;27;20335;-81
2022/01/14 02:19:16;;;;;;;10.30;10.00;;;-1.70;99.90;;;;;;5146613;27;20230;-81
2022/01/14 02:22:11;;;;;;;10.40;10.10;;;-1.80;99.90;;;;;;5146005;27;20227;-80
2022/01/14 02:25:04;;;;;;;10.70;10.40;;;-1.80;99.90;;;;;;5155623;27;20222;-81
2022/01/14 02:27:34;;;;;;;10.63;10.33;;;-1.80;99.90;;;;;;5151223;27;20239;-82
2022/01/14 02:30:05;;;;;;;10.37;10.07;;;-1.80;99.90;;;;;;5147826;27;20227;-81
2022/01/14 02:32:33;;;;;;;10.20;9.90;;;-1.80;99.90;;;;;;5146491;27;20292;-80
2022/01/14 02:35:02;;;;;;;10.57;10.27;;;-1.80;99.90;;;;;;5146298;27;20226;-81
2022/01/14 02:37:40;;;;;;;10.80;10.50;;;-1.80;99.90;;;;;;5146291;27;20230;-81
2022/01/14 02:40:10;;;;;;;10.60;10.30;;;-1.80;99.90;;;;;;5146493;27;20233;-81
2022/01/14 02:42:39;;;;;;;10.80;10.50;;;-1.70;99.90;;;;;;5146173;27;20235;-81
2022/01/14 02:45:11;;;;;;;10.40;10.10;;;-1.70;99.90;;;;;;5148065;27;20297;-81
2022/01/14 02:47:39;;;;;;;10.50;10.20;;;-1.80;99.90;;;;;;5162220;27;20275;-80
2022/01/14 02:50:09;;;;;;;10.40;10.10;;;-1.80;99.90;;;;;;5161739;27;20283;-80
2022/01/14 02:52:56;;;;;;;10.70;10.40;;;-1.80;99.90;;;;;;5151335;27;20248;-81
2022/01/14 02:58:12;;;;;;;10.60;10.30;;;-1.80;99.90;;;;;;5145136;27;20301;-81
2022/01/14 03:00:40;;;;;;;10.53;10.23;;;-1.80;99.90;;;;;;5146445;27;20236;-81
2022/01/14 03:03:11;;;;;;;10.23;9.93;;;-1.80;99.90;;;;;;5147536;27;20231;-80
2022/01/14 03:05:40;;;;;;;10.30;10.00;;;-1.90;99.90;;;;;;5163685;27;20216;-81
2022/01/14 03:08:18;;;;;;;10.27;9.97;;;-1.80;99.90;;;;;;5163296;27;20217;-80
2022/01/14 03:10:57;;;;;;;10.33;10.03;;;-1.80;99.90;;;;;;5150004;27;20240;-81
2022/01/14 03:13:26;;;;;;;10.27;9.97;;;-1.80;99.90;;;;;;5149194;27;20230;-81
2022/01/14 03:15:56;;;;;;;10.03;9.73;;;-1.80;99.90;;;;;;5148971;27;20294;-81
2022/01/14 03:18:37;;;;;;;10.27;9.97;;;-1.80;99.90;;;;;;5146475;27;20245;-81
2022/01/14 03:21:13;;;;;;;10.23;9.93;;;-1.80;99.90;;;;;;5147200;27;20237;-81
2022/01/14 03:24:02;;;;;;;10.67;10.37;;;-1.80;99.90;;;;;;5146584;27;20247;-81
2022/01/14 03:27:56;;;;;;;10.47;10.17;;;-1.80;99.90;;;;;;5145980;27;20227;-81
2022/01/14 03:30:28;;;;;;;10.40;10.10;;;-1.90;99.90;;;;;;5071358;27;20235;-81
2022/01/14 03:32:56;;;;;;;10.50;10.20;;;-1.90;99.90;;;;;;5148999;27;20236;-81
2022/01/14 03:35:29;;;;;;;10.50;10.20;;;-2.00;99.90;;;;;;5146257;27;20233;-81
2022/01/14 03:37:57;;;;;;;10.50;10.20;;;-2.00;99.90;;;;;;5147098;27;20218;-81
2022/01/14 03:40:28;;;;;;;10.67;10.37;;;-2.00;99.90;;;;;;5147396;27;20233;-81
2022/01/14 03:43:13;;;;;;;10.67;10.37;;;-2.00;99.90;;;;;;5148047;27;20313;-81
2022/01/14 03:45:42;;;;;;;10.80;10.50;;;-2.00;99.90;;;;;;5150155;27;20250;-81
2022/01/14 03:48:11;;;;;;;10.37;10.07;;;-1.90;99.90;;;;;;5157455;27;20218;-81
2022/01/14 03:50:52;;;;;;;10.47;10.17;;;-1.90;99.90;;;;;;5159710;27;20222;-81
2022/01/14 03:53:20;;;;;;;10.70;10.40;;;-1.90;99.90;;;;;;5161888;27;20260;-83
2022/01/14 03:55:50;;;;;;;10.60;10.30;;;-1.90;99.90;;;;;;5152155;27;20288;-81
2022/01/14 03:58:18;;;;;;;10.33;10.03;;;-1.80;99.90;;;;;;5145079;27;20250;-81
2022/01/14 04:00:47;;;;;;;10.50;10.20;;;-1.80;99.90;;;;;;5145656;27;20223;-81
2022/01/14 04:03:17;;;;;;;10.73;10.43;;;-1.70;99.90;;;;;;5144955;27;20226;-81
2022/01/14 04:05:46;;;;;;;10.13;9.83;;;-1.70;99.90;;;;;;5143460;27;20227;-81
2022/01/14 04:08:15;;;;;;;10.30;10.00;;;-1.70;99.90;;;;;;5144654;27;20238;-81
2022/01/14 04:10:45;;;;;;;10.30;10.00;;;-1.70;99.90;;;;;;5158057;27;20214;-81
2022/01/14 04:16:01;;;;;;;10.20;9.90;;;-1.60;99.90;;;;;;5145428;27;20255;-81
2022/01/14 04:18:30;;;;;;;10.03;9.73;;;-1.50;99.90;;;;;;5145577;27;20230;-81
2022/01/14 04:21:00;;;;;;;10.47;10.17;;;-1.50;99.90;;;;;;5145437;27;20231;-81
2022/01/14 04:23:29;;;;;;;10.20;9.90;;;-1.50;99.90;;;;;;5145204;27;20235;-81
2022/01/14 04:25:58;;;;;;;10.20;9.90;;;-1.60;99.90;;;;;;5143358;27;20231;-81
2022/01/14 04:28:37;;;;;;;10.20;9.90;;;-1.50;99.90;;;;;;5144180;27;20248;-81
2022/01/14 04:31:07;;;;;;;10.40;10.10;;;-1.50;99.90;;;;;;5144754;27;20270;-81
2022/01/14 04:33:36;;;;;;;10.33;10.03;;;-1.50;99.90;;;;;;5144095;27;20288;-81
2022/01/14 04:36:05;;;;;;;10.00;9.70;;;-1.40;99.90;;;;;;5144135;27;20227;-81
2022/01/14 04:38:34;;;;;;;10.20;9.90;;;-1.50;99.90;;;;;;5143953;27;20234;-80
2022/01/14 04:41:04;;;;;;;10.30;10.00;;;-1.40;99.90;;;;;;5144539;27;20289;-80
2022/01/14 04:43:42;;;;;;;10.10;9.80;;;-1.40;99.90;;;;;;5146178;27;20226;-81
2022/01/14 04:48:59;;;;;;;10.30;10.00;;;-1.40;99.90;;;;;;5145039;27;20222;-81
2022/01/14 04:51:28;;;;;;;10.30;10.00;;;-1.40;99.90;;;;;;5145057;27;20240;-80
2022/01/14 04:53:57;;;;;;;10.10;9.80;;;-1.40;99.90;;;;;;5143807;27;20292;-80
2022/01/14 04:56:27;;;;;;;10.17;9.87;;;-1.40;99.90;;;;;;5144507;27;20223;-81
2022/01/14 04:59:05;;;;;;;10.40;10.10;;;-1.50;99.90;;;;;;5143632;27;20241;-81
2022/01/14 05:01:34;;;;;;;10.40;10.10;;;-1.50;99.90;;;;;;5150935;27;20277;-80
2022/01/14 05:04:04;;;;;;;10.23;9.93;;;-1.60;99.90;;;;;;5158179;27;20252;-81
2022/01/14 05:06:34;;;;;;;10.37;10.07;;;-1.50;99.90;;;;;;5161527;27;20244;-80
2022/01/14 05:09:15;;;;;;;10.33;10.03;;;-1.50;99.90;;;;;;5161208;27;20211;-80
2022/01/14 05:11:51;;;;;;;10.60;10.30;;;-1.60;99.90;;;;;;5154710;27;20223;-81
2022/01/14 05:14:22;;;;;;;10.57;10.27;;;-1.70;99.90;;;;;;5145508;27;20245;-81
2022/01/14 05:16:50;;;;;;;10.67;10.37;;;-1.80;99.90;;;;;;5148702;27;20290;-81
2022/01/14 05:19:19;;;;;;;10.50;10.20;;;-1.90;99.90;;;;;;5148564;27;20228;-81
2022/01/14 05:21:49;;;;;;;10.70;10.40;;;-1.90;99.90;;;;;;5147028;27;20290;-81
2022/01/14 05:24:17;;;;;;;10.80;10.50;;;-1.90;99.90;;;;;;5147653;27;20320;-80
2022/01/14 05:26:46;;;;;;;11.30;10.90;;;-2.00;99.90;;;;;;5147438;27;20270;-81
2022/01/14 05:29:18;;;;;;;10.60;10.30;;;-2.00;99.90;;;;;;5147372;27;20235;-80
2022/01/14 05:32:02;;;;;;;10.60;10.30;;;-2.00;99.90;;;;;;5147249;27;20226;-81
2022/01/14 05:34:34;;;;;;;10.90;10.60;;;-2.00;99.90;;;;;;5146827;27;20223;-81
2022/01/14 05:37:04;;;;;;;11.20;10.80;;;-2.00;99.90;;;;;;5147286;27;20274;-80
2022/01/14 05:39:34;;;;;;;11.20;10.80;;;-2.00;99.90;;;;;;5146467;27;20256;-81
2022/01/14 05:42:03;;;;;;;10.90;10.60;;;-2.00;99.90;;;;;;5147686;27;20379;-81
2022/01/14 05:44:32;;;;;;;11.27;10.87;;;-2.10;99.90;;;;;;5147102;27;20229;-81
2022/01/14 05:47:11;;;;;;;10.97;10.67;;;-2.10;99.90;;;;;;5147203;27;20218;-81
2022/01/14 05:49:40;;;;;;;10.87;10.57;;;-2.20;99.90;;;;;;5147368;27;20242;-80
2022/01/14 05:52:10;;;;;;;10.90;10.60;;;-2.20;99.90;;;;;;5146522;27;20238;-81
2022/01/14 05:54:39;;;;;;;10.70;10.40;;;-2.30;99.90;;;;;;5146932;27;20235;-83
2022/01/14 05:57:08;;;;;;;10.80;10.50;;;-2.30;99.90;;;;;;5147510;27;20238;-81
2022/01/14 05:59:37;;;;;;;10.40;10.10;;;-2.40;99.90;;;;;;5152642;27;20228;-80
2022/01/14 06:02:10;;;;;;;10.50;10.20;;;-2.40;99.90;;;;;;5150729;27;20236;-81
2022/01/14 06:04:37;;;;;;;10.60;10.30;;;-2.40;99.90;;;;;;5148851;27;20228;-83
2022/01/14 06:07:06;;;;;;;10.57;10.27;;;-2.40;99.90;;;;;;5147163;27;20236;-80
2022/01/14 06:09:35;;;;;;;10.70;10.40;;;-2.50;99.90;;;;;;5146840;27;20256;-80
2022/01/14 06:12:05;;;;;;;11.17;10.77;;;-2.50;99.90;;;;;;5146412;27;20224;-80
2022/01/14 06:14:34;;;;;;;10.53;10.23;;;-2.50;99.90;;;;;;5146648;27;20277;-80
2022/01/14 06:17:05;;;;;;;10.67;10.37;;;-2.50;99.90;;;;;;5146471;27;20219;-80
2022/01/14 06:19:35;;;;;;;10.87;10.57;;;-2.50;99.90;;;;;;5145781;27;20240;-80
2022/01/14 06:22:04;;;;;;;10.70;10.40;;;-2.50;99.90;;;;;;5145480;27;20228;-81
2022/01/14 06:24:32;;;;;;;10.90;10.60;;;-2.50;99.90;;;;;;5145880;27;20240;-82
2022/01/14 06:27:01;;;;;;;10.90;10.60;;;-2.50;99.90;;;;;;5145941;27;20313;-80
2022/01/14 06:29:30;;;;;;;11.00;10.70;;;-2.50;99.90;;;;;;5147445;27;20221;-80
2022/01/14 06:32:00;;;;;;;10.60;10.30;;;-2.50;99.90;;;;;;5163311;27;20232;-81
2022/01/14 06:34:29;;;;;;;10.67;10.37;;;-2.60;99.90;;;;;;5155091;27;20224;-81
2022/01/14 06:37:08;;;;;;;10.60;10.30;;;-2.60;99.90;;;;;;5149258;27;20667;-81
2022/01/14 06:39:37;;;;;;;10.80;10.50;;;-2.60;99.90;;;;;;5149021;27;20231;-81
2022/01/14 06:42:07;;;;;;;11.00;10.70;;;-2.50;99.90;;;;;;5147580;27;20229;-81
2022/01/14 06:44:36;;;;;;;11.03;10.63;;;-2.50;99.90;;;;;;5147911;27;20329;-79
2022/01/14 06:47:06;;;;;;;11.20;10.80;;;-2.50;99.90;;;;;;5160904;27;20246;-81
2022/01/14 06:49:35;;;;;;;11.50;11.10;;;-2.50;99.90;;;;;;5163097;27;20236;-81
2022/01/14 06:52:13;;;;;;;11.10;10.70;;;-2.50;99.90;;;;;;5153904;27;20220;-81
2022/01/14 06:54:43;;;;;;;11.30;10.90;;;-2.50;99.90;;;;;;5152285;27;20257;-81
2022/01/14 06:57:12;;;;;;;11.13;10.73;;;-2.40;99.90;;;;;;5156812;27;20235;-82
2022/01/14 06:59:40;;;;;;;11.80;11.40;;;-2.40;99.90;;;;;;5171004;22;21298;-82
2022/01/14 07:02:08;;;;;;;11.73;11.33;;;-2.40;99.90;;;;;;5141165;27;20318;-82
2022/01/14 07:04:36;;;;;;;12.10;11.70;;;-2.40;99.90;;;;;;5138444;27;20273;-83
2022/01/14 07:07:05;;;;;;;11.63;11.23;;;-2.40;99.90;;;;;;5155077;27;20292;-83
2022/01/14 07:09:55;;;;;;;11.73;11.33;;;-2.30;99.90;;;;;;5149524;27;20287;-83
2022/01/14 07:12:24;;;;;;;11.70;11.30;;;-2.30;99.90;;;;;;5146534;27;20231;-81
2022/01/14 07:14:53;;;;;;;12.10;11.70;;;-2.20;99.90;;;;;;5143554;27;20424;-85
2022/01/14 07:17:22;;;;;;;11.67;11.27;;;-2.10;99.90;;;;;;5142494;27;20231;-85
2022/01/14 07:19:52;;;;;;;11.43;11.03;;;-2.00;99.90;;;;;;5143043;27;20289;-85
2022/01/14 07:22:22;;;;;;;11.63;11.23;;;-1.90;99.90;;;;;;5145438;27;20241;-84
2022/01/14 07:24:51;;;;;;;12.30;11.90;;;-1.90;99.90;;;;;;5145388;27;20234;-84
2022/01/14 07:27:19;;;;;;;11.57;11.17;;;-1.80;99.90;;;;;;5144653;27;20261;-84
2022/01/14 07:29:46;;;;;;;11.90;11.50;;;-1.70;99.90;;;;;;5143982;27;20296;-84
2022/01/14 07:32:14;;;;;;;11.70;11.30;;;-1.80;99.90;;;;;;5145986;27;20230;-83
2022/01/14 07:34:42;;;;;;;11.40;11.00;;;-1.90;99.90;;;;;;5134996;27;20239;-84
2022/01/14 07:37:10;;;;;;;11.67;11.27;;;-2.00;99.90;;;;;;5140134;27;20233;-83
2022/01/14 07:39:39;;;;;;;11.53;11.13;;;-2.00;99.90;;;;;;5145326;27;20247;-83
2022/01/14 07:42:08;;;;;;;12.10;11.70;;;-2.10;99.90;;;;;;5147155;27;20270;-83
2022/01/14 07:44:37;;;;;;;12.20;11.80;;;-2.10;99.90;;;;;;5147655;27;20231;-84
2022/01/14 07:47:06;;;;;;;12.17;11.77;;;-2.20;99.90;;;;;;5147387;27;20257;-84
2022/01/14 07:49:34;;;;;;;11.90;11.50;;;-2.10;99.90;;;;;;5152121;27;20199;-83
2022/01/14 07:52:02;;;;;;;11.70;11.30;;;-2.10;99.90;;;;;;5161321;27;20255;-83
2022/01/14 07:54:30;;;;;;;11.60;11.20;;;-2.10;99.90;;;;;;5162483;27;20216;-83
2022/01/14 07:57:00;;;;;;;12.07;11.67;;;-2.10;99.90;;;;;;5163109;27;20217;-84
2022/01/14 07:59:32;;;;;;;11.80;11.40;;;-2.10;99.90;;;;;;5162999;27;20227;-84
2022/01/14 08:02:03;;;;;;;11.70;11.30;;;-2.10;99.90;;;;;;5163613;27;20212;-83
2022/01/14 08:05:36;;;;;;;11.60;11.20;;;-2.00;99.90;;;;;;5163050;27;20223;-82
2022/01/14 08:08:07;;;;;;;11.63;11.23;;;-2.00;99.90;;;;;;5161481;27;20236;-83
2022/01/14 08:10:35;;;;;;;11.70;11.30;;;-2.00;99.90;;;;;;5161647;27;20238;-83
2022/01/14 08:13:04;;;;;;;11.43;11.03;;;-2.00;99.90;;;;;;5162801;27;20216;-83
2022/01/14 08:15:33;;;;;;;11.70;11.30;;;-1.90;99.90;;;;;;5163571;27;20214;-83
2022/01/14 08:18:02;;;;;;;11.50;11.10;;;-1.90;99.90;;;;;;5162905;27;20230;-83
2022/01/14 08:20:30;;;;;;;11.57;11.17;;;-1.90;99.90;;;;;;5163512;27;20200;-83
2022/01/14 08:22:58;;;;;;;11.37;10.97;;;-1.80;99.90;;;;;;5163199;27;20227;-83
2022/01/14 08:25:26;;;;;;;11.43;11.03;;;-1.80;99.90;;;;;;5162686;27;20224;-82
2022/01/14 08:27:54;;;;;;;11.77;11.37;;;-1.70;99.90;;;;;;5159564;27;20222;-84
2022/01/14 08:30:24;;;;;;;11.80;11.40;;;-1.60;99.90;;;;;;5160424;27;20222;-84
2022/01/14 08:32:51;;;;;;;11.37;10.97;;;-1.60;99.90;;;;;;5156887;27;20275;-84
2022/01/14 08:35:19;;;;;;;11.70;11.30;;;-1.50;99.90;;;;;;5150669;27;20232;-84
2022/01/14 08:37:47;;;;;;;11.73;11.33;;;-1.40;99.90;;;;;;5147287;27;20223;-85
2022/01/14 08:40:15;;;;;;;12.00;11.60;;;-1.40;99.90;;;;;;5146070;27;20230;-84
2022/01/14 08:42:45;;;;;;;11.67;11.27;;;-1.30;99.90;;;;;;5145295;27;20232;-84
2022/01/14 08:45:21;;;;;;;11.90;11.50;;;-1.30;99.90;;;;;;5136088;27;20231;-84
2022/01/14 08:47:52;;;;;;;11.77;11.37;;;-1.20;99.90;;;;;;5128152;28;20239;-83
2022/01/14 08:50:21;;;;;;;11.90;11.50;;;-1.20;99.90;;;;;;5128597;28;20231;-82
2022/01/14 08:52:49;;;;;;;11.70;11.30;;;-1.10;99.90;;;;;;5128089;28;20248;-83
2022/01/14 08:55:18;;;;;;;11.60;11.20;;;-1.00;99.90;;;;;;5128947;28;20262;-82
2022/01/14 08:57:47;;;;;;;10.73;10.43;;;-0.90;99.90;;;;;;5130592;28;21073;-83
2022/01/14 09:00:17;;;;;;;10.70;10.40;;;-0.70;99.90;;;;;;5129853;28;20243;-83
2022/01/14 09:02:46;;;;;;;10.70;10.40;;;-0.60;99.90;;;;;;5130315;28;20223;-84
2022/01/14 09:05:16;;;;;;;10.03;9.73;;;-0.40;99.90;;;;;;5129469;28;20228;-83
2022/01/14 09:07:44;;;;;;;9.90;9.60;;;-0.30;99.90;;;;;;5130483;28;20231;-84
2022/01/14 09:10:12;;;;;;;9.80;9.50;;;-0.10;99.90;;;;;;5133780;28;20221;-83
2022/01/14 09:12:41;;;;;;;9.97;9.67;;;0.00;99.90;;;;;;5129946;28;20239;-86
2022/01/14 09:15:11;;;;;;;9.90;9.60;;;0.10;99.90;;;;;;5125467;28;20288;-84
2022/01/14 09:17:40;;;;;;;9.77;9.47;;;0.30;99.90;;;;;;5126393;28;20228;-84
2022/01/14 09:20:10;;;;;;;9.80;9.50;;;0.40;99.90;;;;;;5126097;28;20237;-85
2022/01/14 09:22:42;;;;;;;9.60;9.30;;;0.60;99.90;;;;;;5125458;28;20305;-86
2022/01/14 09:25:11;;;;;;;9.30;9.00;;;0.70;99.90;;;;;;5121344;28;20254;-86
2022/01/14 09:27:39;;;;;;;9.00;8.80;;;0.90;99.90;;;;;;5119640;28;20251;-84
2022/01/14 09:30:09;;;;;;;9.03;8.80;;;1.10;99.90;;;;;;5128337;27;20217;-86
2022/01/14 09:32:37;;;;;;;8.47;8.27;;;1.20;99.90;;;;;;5137588;27;20205;-84
2022/01/14 09:35:08;;;;;;;8.60;8.40;;;1.40;99.90;;;;;;5142623;27;20227;-80
2022/01/14 09:37:36;;;;;;;10.10;9.80;;;1.60;99.90;;;;;;5137852;27;20228;-78
2022/01/14 09:40:07;;;;;;;8.80;8.60;;;1.90;99.90;;;;;;5126677;28;20601;-80
2022/01/14 09:42:35;;;;;;;8.80;8.60;;;2.30;99.90;;;;;;5119292;28;20251;-85
2022/01/14 09:45:04;;;;;;;8.60;8.40;;;2.60;99.90;;;;;;5133991;27;20297;-85
2022/01/14 09:47:33;;;;;;;8.60;8.40;;;2.80;99.90;;;;;;5140290;27;20270;-85
2022/01/14 09:50:20;;;;;;;8.50;8.30;;;3.10;99.90;;;;;;5139903;27;20289;-85
2022/01/14 09:52:51;;;;;;;9.00;8.80;;;3.50;99.90;;;;;;5139710;27;20258;-85
2022/01/14 09:55:21;;;;;;;8.50;8.30;;;3.80;99.90;;;;;;5127873;27;20236;-85
2022/01/14 09:57:50;;;;;;;8.70;8.50;;;3.80;99.90;;;;;;5132662;27;20213;-85
2022/01/14 10:00:18;;;;;;;8.53;8.33;;;3.80;99.90;;;;;;5141584;27;20231;-84
2022/01/14 10:02:46;;;;;;;8.80;8.60;;;3.80;99.90;;;;;;5126285;27;20241;-85
2022/01/14 10:05:33;;;;;;;8.97;8.77;;;4.00;99.90;;;;;;5135071;27;20224;-85
2022/01/14 10:08:22;;;;;;;8.70;8.50;;;4.20;99.90;;;;;;5143521;27;20224;-85
2022/01/14 10:10:56;;;;;;;8.40;8.20;;;4.20;99.90;;;;;;5143753;27;20224;-86
2022/01/14 10:13:28;;;;;;;8.80;8.60;;;4.20;99.90;;;;;;5143261;27;20224;-85
2022/01/14 10:16:09;;;;;;;8.90;8.70;;;4.20;99.90;;;;;;5144919;27;20224;-85
2022/01/14 10:18:40;;;;;;;8.90;8.70;;;4.30;99.90;;;;;;5145539;27;20232;-85
2022/01/14 10:21:11;;;;;;;8.70;8.50;;;4.40;99.90;;;;;;5145293;27;20236;-85
2022/01/14 10:23:45;;;;;;;8.80;8.60;;;4.40;99.90;;;;;;5131794;27;20259;-85
2022/01/14 10:26:15;;;;;;;9.10;8.80;;;4.50;99.90;;;;;;5122847;28;20221;-83
2022/01/14 10:29:00;;;;;;;9.90;9.60;;;4.70;99.90;;;;;;5121428;28;20251;-85
2022/01/14 10:31:34;;;;;;;9.53;9.23;;;4.90;99.90;;;;;;5121268;28;20223;-84
2022/01/14 10:34:15;;;;;;;9.33;9.03;;;5.20;99.90;;;;;;5125370;28;20286;-81
2022/01/14 10:36:50;;;;;;;9.13;8.83;;;5.10;99.90;;;;;;5124253;28;20323;-81
2022/01/14 10:39:26;;;;;;;9.30;9.00;;;5.20;99.90;;;;;;5127080;28;20286;-81
2022/01/14 10:41:57;;;;;;;9.40;9.10;;;5.20;99.90;;;;;;5126182;28;20220;-82
2022/01/14 10:44:28;;;;;;;9.00;8.80;;;5.50;99.90;;;;;;5126788;28;20227;-83
2022/01/14 10:47:16;;;;;;;8.83;8.63;;;5.60;99.90;;;;;;5126465;28;20241;-81
2022/01/14 10:49:51;;;;;;;9.20;8.90;;;5.70;99.90;;;;;;5127122;28;20262;-82
2022/01/14 10:52:22;;;;;;;9.00;8.80;;;5.60;99.90;;;;;;5125118;28;20212;-83
2022/01/14 10:54:51;;;;;;;8.93;8.73;;;5.60;99.90;;;;;;5125073;28;20232;-83
2022/01/14 10:57:25;;;;;;;9.23;8.93;;;5.50;99.90;;;;;;5124000;28;20237;-83
2022/01/14 10:59:56;;;;;;;9.00;8.80;;;5.70;99.90;;;;;;5125232;28;20267;-82
2022/01/14 11:02:40;;;;;;;8.53;8.33;;;5.90;99.90;;;;;;5127636;28;20224;-82
2022/01/14 11:05:12;;;;;;;8.67;8.47;;;6.00;99.90;;;;;;5126085;28;20267;-82
2022/01/14 11:07:42;;;;;;;9.20;8.90;;;6.20;99.90;;;;;;5126181;28;20323;-84
2022/01/14 11:10:22;;;;;;;9.10;8.80;;;6.60;99.90;;;;;;5124616;28;20289;-84
2022/01/14 11:12:52;;;;;;;9.10;8.80;;;6.90;99.90;;;;;;5134401;28;20227;-83
2022/01/14 11:15:21;;;;;;;9.20;8.90;;;6.90;99.90;;;;;;5126795;27;20278;-84
2022/01/14 11:17:52;;;;;;;8.87;8.67;;;7.00;99.90;;;;;;5126903;28;20225;-83
2022/01/14 11:20:28;;;;;;;9.27;8.97;;;7.00;99.90;;;;;;5129120;28;20240;-83
2022/01/14 11:25:47;;;;;;;9.30;9.00;;;7.40;99.90;;;;;;5129125;28;20274;-83
2022/01/14 11:28:27;;;;;;;9.00;8.70;;;7.70;99.90;;;;;;5126385;28;20271;-82
2022/01/14 11:30:55;;;;;;;9.17;8.87;;;7.90;99.90;;;;;;5124715;28;20224;-85
2022/01/14 11:33:40;;;;;;;9.27;8.97;;;8.00;99.90;;;;;;5106496;28;20244;-83
2022/01/14 11:36:08;;;;;;;9.40;9.10;;;8.20;99.90;;;;;;5102781;28;20233;-84
2022/01/14 11:38:41;;;;;;;9.90;9.60;;;8.30;99.90;;;;;;5103870;28;20237;-85
2022/01/14 11:41:12;;;;;;;9.40;9.10;;;8.20;99.90;;;;;;5102345;28;20239;-86
2022/01/14 11:43:53;;;;;;;10.10;9.80;;;8.30;99.90;;;;;;5102517;28;20292;-82
2022/01/14 11:46:47;;;;;;;10.50;10.20;;;8.30;99.90;;;;;;5101608;28;20237;-86
2022/01/14 11:49:37;;;;;;;10.30;10.00;;;8.40;99.90;;;;;;5100342;28;20225;-85
2022/01/14 11:52:08;;;;;;;10.60;10.30;;;8.60;99.90;;;;;;5099552;28;20222;-86
2022/01/14 11:54:44;;;;;;;10.40;10.10;;;8.60;99.90;;;;;;5099787;28;20214;-86
2022/01/14 11:57:14;;;;;;;10.33;10.03;;;8.80;99.90;;;;;;5100983;28;20242;-85
2022/01/14 11:59:49;;;;;;;10.67;10.37;;;9.10;99.90;;;;;;5101363;28;20328;-84
2022/01/14 12:02:40;;;;;;;10.50;10.20;;;9.20;99.90;;;;;;5102527;28;20692;-83
2022/01/14 12:05:19;;;;;;;10.67;10.37;;;9.20;99.90;;;;;;5118197;28;20781;-84
2022/01/14 12:08:24;;;;;;;10.23;9.93;;;9.30;99.90;;;;;;5121035;28;20290;-82
2022/01/14 12:10:56;;;;;;;10.33;10.03;;;9.50;99.90;;;;;;5121468;28;20237;-80
2022/01/14 12:13:37;;;;;;;10.43;10.13;;;9.70;99.90;;;;;;5123515;28;20221;-81
2022/01/14 12:16:10;;;;;;;10.33;10.03;;;10.00;99.90;;;;;;5122970;28;20255;-82
2022/01/14 12:19:18;;;;;;;10.93;10.63;;;10.40;99.90;;;;;;5122800;28;20224;-82
2022/01/14 12:22:06;;;;;;;10.57;10.27;;;10.70;99.90;;;;;;5122570;28;20248;-82
2022/01/14 12:24:39;;;;;;;10.17;9.87;;;10.90;99.90;;;;;;5122007;28;20241;-82
2022/01/14 12:27:41;;;;;;;10.57;10.27;;;10.90;99.90;;;;;;5120969;28;20221;-83
2022/01/14 12:30:32;;;;;;;10.53;10.23;;;11.20;99.90;;;;;;5121931;28;20224;-81
2022/01/14 12:33:02;;;;;;;10.30;10.00;;;11.40;99.90;;;;;;5117435;28;20233;-82
2022/01/14 12:35:35;;;;;;;10.33;10.03;;;11.90;99.90;;;;;;5121406;28;20217;-81
2022/01/14 12:38:03;;;;;;;10.50;10.20;;;12.10;99.90;;;;;;5121901;28;20237;-82
2022/01/14 12:40:40;;;;;;;10.60;10.30;;;12.10;99.90;;;;;;5122079;28;20290;-81
2022/01/14 12:43:12;;;;;;;10.30;10.00;;;12.30;99.90;;;;;;5121992;28;20232;-82
2022/01/14 12:46:12;;;;;;;9.87;9.57;;;12.60;99.90;;;;;;5122142;28;20237;-82
2022/01/14 12:48:53;;;;;;;10.17;9.87;;;12.90;99.90;;;;;;5122130;28;20225;-82
2022/01/14 12:51:22;;;;;;;9.97;9.67;;;13.30;99.90;;;;;;5121844;28;20236;-81
2022/01/14 12:53:59;;;;;;;10.10;9.80;;;13.50;99.90;;;;;;5121247;28;20240;-82
2022/01/14 12:56:31;;;;;;;9.80;9.50;;;13.70;99.90;;;;;;5122018;28;20228;-81
2022/01/14 12:59:09;;;;;;;9.67;9.37;;;13.50;99.90;;;;;;5125066;28;20233;-82
2022/01/14 13:02:24;;;;;;;9.97;9.67;;;13.50;99.90;;;;;;5146986;22;20403;-83
2022/01/14 13:05:42;;;;;;;10.67;10.37;;;13.70;99.90;;;;;;5127301;28;20221;-84
2022/01/14 13:26:36;;;;;;;10.43;10.13;;;13.10;99.90;;;;;;5121463;28;20220;-83
2022/01/14 13:29:35;;;;;;;10.50;10.20;;;13.20;99.90;;;;;;5127109;27;20228;-83
2022/01/14 13:42:35;;;;;;;10.57;10.27;;;13.60;99.90;;;;;;5127261;22;20260;-83
2022/01/14 13:48:50;;;;;;;10.57;10.27;;;13.40;99.90;;;;;;5173303;27;20242;-83
2022/01/14 13:51:41;;;;;;;10.60;10.30;;;13.20;99.90;;;;;;5175335;27;20271;-83
2022/01/14 13:55:19;;;;;;;10.63;10.33;;;13.10;99.90;;;;;;5176512;27;20227;-84
2022/01/14 13:58:19;;;;;;;10.60;10.30;;;13.40;99.90;;;;;;5082628;28;20249;-84
2022/01/14 14:00:53;;;;;;;10.38;10.07;;;13.60;99.90;;;;;;5152551;27;20224;-83
2022/01/14 14:11:02;;;;;;;10.45;10.15;;;13.30;99.90;;;;;;5187968;27;20228;-83
2022/01/14 14:20:53;;;;;;;10.47;10.17;;;13.00;99.90;;;;;;5113413;27;20215;-88